Time;durP1;ratioP1;P1;durP2;ratioP2;P2;SDS_P1;SDS_P2;PMS_P1;PMS_P2;Temp;Humidity;BMP_temperature;BMP_pressure;BME280_temperature;BME280_humidity;BME280_pressure;Samples;Min_cycle;Max_cycle;Signal;HPM_P1;HPM_P2
2023/04/21 00:00:34;;;;;;;14.05;12.57;;;;;;;2.12;100.00;92491.78;2045031;28;20432;-83
2023/04/21 00:01:35;;;;;;;14.55;12.55;;;;;;;2.11;100.00;92485.00;2047978;29;20165;-81
2023/04/21 00:02:38;;;;;;;14.82;13.10;;;;;;;2.17;100.00;92490.66;2052012;28;20027;-85
2023/04/21 00:03:40;;;;;;;14.55;12.98;;;;;;;2.13;100.00;92490.66;2053330;28;20431;-85
2023/04/21 00:04:44;;;;;;;13.50;12.13;;;;;;;2.20;100.00;92484.63;2054424;28;20038;-84
2023/04/21 00:05:45;;;;;;;15.07;12.32;;;;;;;2.31;100.00;92477.44;2044985;28;20027;-83
2023/04/21 00:06:49;;;;;;;13.02;11.68;;;;;;;2.34;100.00;92473.31;2054194;28;20031;-85
2023/04/21 00:07:51;;;;;;;10.38;9.27;;;;;;;2.34;100.00;92475.94;2063430;28;20030;-85
2023/04/21 00:08:52;;;;;;;11.18;10.07;;;;;;;2.35;100.00;92469.53;2055582;28;20511;-84
2023/04/21 00:09:53;;;;;;;10.77;9.68;;;;;;;2.27;100.00;92477.44;2055108;28;20058;-84
2023/04/21 00:10:55;;;;;;;8.90;7.47;;;;;;;2.23;100.00;92468.78;2060975;28;20518;-83
2023/04/21 00:11:57;;;;;;;7.40;6.57;;;;;;;2.25;100.00;92473.69;2051846;28;20081;-85
2023/04/21 00:12:58;;;;;;;8.77;7.88;;;;;;;2.25;100.00;92474.44;2044437;28;20023;-83
2023/04/21 00:13:59;;;;;;;7.97;7.18;;;;;;;2.24;100.00;92472.94;2051660;28;20492;-83
2023/04/21 00:15:00;;;;;;;7.90;7.05;;;;;;;2.23;100.00;92475.94;2060054;28;20033;-83
2023/04/21 00:16:02;;;;;;;8.18;6.75;;;;;;;2.21;100.00;92472.94;2067278;28;20034;-85
2023/04/21 00:17:03;;;;;;;8.27;7.45;;;;;;;2.16;100.00;92468.81;2057618;28;20097;-82
2023/04/21 00:18:05;;;;;;;7.63;6.90;;;;;;;2.17;100.00;92472.19;2047594;28;20055;-85
2023/04/21 00:19:06;;;;;;;8.23;7.38;;;;;;;2.21;100.00;92478.97;2047404;28;20179;-83
2023/04/21 00:20:09;;;;;;;7.65;6.95;;;;;;;2.19;100.00;92469.94;2053854;28;20031;-85
2023/04/21 00:21:10;;;;;;;9.00;8.07;;;;;;;2.16;100.00;92466.19;2052950;28;20043;-85
2023/04/21 00:22:13;;;;;;;8.95;8.07;;;;;;;2.13;100.00;92456.38;2053508;28;20488;-83
2023/04/21 00:23:14;;;;;;;8.80;7.85;;;;;;;2.17;100.00;92462.41;2061466;28;20018;-83
2023/04/21 00:24:16;;;;;;;8.98;8.07;;;;;;;2.16;100.00;92460.91;2059601;28;20022;-83
2023/04/21 00:25:17;;;;;;;8.63;7.78;;;;;;;2.21;100.00;92457.13;2047933;28;20473;-83
2023/04/21 00:26:19;;;;;;;8.45;7.28;;;;;;;2.21;100.00;92462.41;2046824;28;20042;-84
2023/04/21 00:27:23;;;;;;;8.40;7.47;;;;;;;2.21;100.00;92462.41;2047675;28;20477;-84
2023/04/21 00:28:24;;;;;;;7.70;7.03;;;;;;;2.29;100.00;92460.53;2047922;28;20027;-84
2023/04/21 00:29:24;;;;;;;9.25;7.93;;;;;;;2.37;100.00;92454.84;2055975;28;20062;-83
2023/04/21 00:30:25;;;;;;;8.15;7.32;;;;;;;2.37;100.00;92464.63;2051854;28;20023;-84
2023/04/21 00:31:27;;;;;;;8.75;7.93;;;;;;;2.38;100.00;92466.91;2043943;28;20034;-85
2023/04/21 00:32:28;;;;;;;7.82;7.10;;;;;;;2.37;100.00;92460.13;2055027;28;20507;-83
2023/04/21 00:33:29;;;;;;;8.52;7.72;;;;;;;2.31;100.00;92469.53;2062915;28;20037;-84
2023/04/21 00:34:30;;;;;;;8.40;7.60;;;;;;;2.41;100.00;92466.13;2054405;28;20093;-84
2023/04/21 00:35:31;;;;;;;8.43;7.63;;;;;;;2.36;100.00;92461.25;2052663;28;20026;-83
2023/04/21 00:36:32;;;;;;;8.82;8.02;;;;;;;2.26;100.00;92465.41;2055515;28;20026;-83
2023/04/21 00:37:33;;;;;;;8.38;7.57;;;;;;;2.26;100.00;92462.78;2043443;28;20613;-86
2023/04/21 00:38:34;;;;;;;8.57;7.78;;;;;;;2.24;100.00;92464.28;2059231;28;20027;-84
2023/04/21 00:39:35;;;;;;;7.63;6.88;;;;;;;2.21;100.00;92462.41;2063686;28;20026;-83
2023/04/21 00:40:36;;;;;;;8.73;7.85;;;;;;;2.20;100.00;92468.81;2055707;28;20031;-83
2023/04/21 00:41:38;;;;;;;8.45;7.53;;;;;;;2.29;100.00;92455.25;2051199;28;20034;-85
2023/04/21 00:42:39;;;;;;;8.27;7.47;;;;;;;2.28;100.00;92462.38;2058451;28;20103;-84
2023/04/21 00:44:06;;;;;;;8.27;7.03;;;;;;;2.19;100.00;92462.75;2054822;28;20070;-85
2023/04/21 00:45:07;;;;;;;7.70;6.80;;;;;;;2.26;100.00;92464.66;2066574;28;20071;-82
2023/04/21 00:46:08;;;;;;;7.50;6.63;;;;;;;2.25;100.00;92460.53;2051777;28;20510;-83
2023/04/21 00:47:10;;;;;;;7.03;6.32;;;;;;;2.23;100.00;92455.59;2046737;28;20031;-83
2023/04/21 00:48:11;;;;;;;7.25;6.55;;;;;;;2.30;100.00;92465.41;2045094;28;20027;-84
2023/04/21 00:49:12;;;;;;;6.43;5.82;;;;;;;2.21;100.00;92459.78;2053659;28;20023;-84
2023/04/21 00:50:14;;;;;;;6.55;5.97;;;;;;;2.29;100.00;92461.28;2066172;28;20026;-83
2023/04/21 00:51:15;;;;;;;7.78;7.03;;;;;;;2.24;100.00;92461.66;2054803;28;20054;-85
2023/04/21 00:52:17;;;;;;;8.43;6.90;;;;;;;2.27;100.00;92459.00;2045325;28;20373;-83
2023/04/21 00:53:19;;;;;;;6.95;6.28;;;;;;;2.26;100.00;92459.38;2053409;28;20030;-83
2023/04/21 00:54:23;;;;;;;7.57;6.88;;;;;;;2.29;100.00;92461.28;2054286;28;20022;-85
2023/04/21 00:55:24;;;;;;;7.22;6.53;;;;;;;2.22;100.00;92461.28;2048178;28;20030;-84
2023/04/21 00:56:29;;;;;;;7.22;6.53;;;;;;;2.21;100.00;92455.25;2053607;28;20061;-85
2023/04/21 00:57:30;;;;;;;6.85;6.25;;;;;;;2.22;100.00;92462.03;2063306;28;20033;-84
2023/04/21 00:58:35;;;;;;;7.30;6.63;;;;;;;2.15;100.00;92458.63;2059607;28;20032;-84
2023/04/21 00:59:37;;;;;;;7.18;6.53;;;;;;;2.09;100.00;92453.00;2051656;28;20054;-84
2023/04/21 01:00:39;;;;;;;6.65;6.05;;;;;;;2.07;100.00;92460.53;2059634;28;20026;-86
2023/04/21 01:01:40;;;;;;;7.82;7.05;;;;;;;2.06;100.00;92459.00;2052260;28;20058;-85
2023/04/21 01:02:41;;;;;;;8.25;6.32;;;;;;;2.26;100.00;92457.50;2044596;28;20508;-82
2023/04/21 01:03:42;;;;;;;7.13;6.30;;;;;;;2.08;100.00;92453.38;2046608;28;20126;-85
2023/04/21 01:04:44;;;;;;;7.07;6.40;;;;;;;2.06;100.00;92460.91;2045122;28;20027;-83
2023/04/21 01:05:45;;;;;;;7.13;6.10;;;;;;;2.08;100.00;92454.13;2059182;28;20373;-85
2023/04/21 01:06:48;;;;;;;7.57;6.38;;;;;;;2.01;100.00;92462.78;2071157;28;20042;-85
2023/04/21 01:07:50;;;;;;;7.68;6.70;;;;;;;1.92;100.00;92459.03;2059128;28;20482;-83
2023/04/21 01:08:53;;;;;;;6.93;6.18;;;;;;;2.17;100.00;92461.66;2057888;28;20035;-84
2023/04/21 01:09:53;;;;;;;7.18;6.50;;;;;;;2.09;100.00;92463.53;2051470;28;20051;-85
2023/04/21 01:10:56;;;;;;;6.50;5.35;;;;;;;2.30;100.00;92454.09;2050544;28;20030;-83
2023/04/21 01:12:06;;;;;;;7.03;6.43;;;;;;;2.07;100.00;92451.88;2051547;28;20448;-83
2023/04/21 01:13:07;;;;;;;7.53;6.75;;;;;;;1.98;100.00;92455.66;2054238;28;20187;-83
2023/04/21 01:14:08;;;;;;;8.07;6.65;;;;;;;2.01;100.00;92457.50;2054267;28;20163;-83
2023/04/21 01:15:11;;;;;;;7.28;6.57;;;;;;;1.98;100.00;92454.91;2051131;28;20166;-82
2023/04/21 01:16:16;;;;;;;7.18;6.47;;;;;;;1.96;100.00;92460.53;2059972;28;20495;-85
2023/04/21 01:17:17;;;;;;;7.55;6.85;;;;;;;1.89;100.00;92460.53;2061889;28;20030;-85
2023/04/21 01:18:18;;;;;;;7.45;6.75;;;;;;;2.07;100.00;92462.44;2055235;28;20031;-85
2023/04/21 01:19:20;;;;;;;7.38;6.68;;;;;;;2.03;100.00;92457.16;2054850;28;20474;-84
2023/04/21 01:20:21;;;;;;;7.05;6.15;;;;;;;2.09;100.00;92465.41;2051002;28;20038;-82
2023/04/21 01:21:22;;;;;;;7.13;6.43;;;;;;;2.31;100.00;92461.63;2054993;28;20070;-85
2023/04/21 01:22:23;;;;;;;6.78;6.13;;;;;;;2.12;100.00;92452.25;2055741;28;20204;-83
2023/04/21 01:23:24;;;;;;;8.57;6.82;;;;;;;2.04;100.00;92457.91;2054514;28;20023;-83
2023/04/21 01:24:40;;;;;;;7.47;6.70;;;;;;;1.94;100.00;92459.41;2054530;28;20122;-85
2023/04/21 01:25:41;;;;;;;7.50;6.57;;;;;;;1.96;100.00;92462.41;2067882;28;20116;-85
2023/04/21 01:26:43;;;;;;;7.38;6.68;;;;;;;1.92;100.00;92461.66;2058588;28;20039;-85
2023/04/21 01:27:44;;;;;;;7.38;6.40;;;;;;;1.91;100.00;92468.06;2051598;28;20042;-82
2023/04/21 01:28:47;;;;;;;8.40;6.75;;;;;;;1.85;100.00;92459.03;2051525;28;20031;-85
2023/04/21 01:29:51;;;;;;;8.65;6.80;;;;;;;1.77;100.00;92455.66;2044794;28;20024;-85
2023/04/21 01:30:53;;;;;;;8.50;6.78;;;;;;;1.84;100.00;92460.91;2051199;28;20042;-83
2023/04/21 01:31:53;;;;;;;8.20;7.35;;;;;;;1.93;100.00;92460.53;2050839;28;20035;-85
2023/04/21 01:32:57;;;;;;;7.78;7.03;;;;;;;1.87;100.00;92465.44;2058346;28;20204;-85
2023/04/21 01:34:03;;;;;;;7.45;6.75;;;;;;;1.87;100.00;92465.44;2059600;28;20023;-84
2023/04/21 01:35:05;;;;;;;7.65;6.60;;;;;;;1.93;100.00;92457.88;2054970;28;20037;-84
2023/04/21 01:36:07;;;;;;;7.18;6.45;;;;;;;1.93;100.00;92461.31;2054360;28;20691;-84
2023/04/21 01:37:11;;;;;;;7.57;6.57;;;;;;;1.93;100.00;92463.94;2052221;28;20042;-82
2023/04/21 01:38:12;;;;;;;7.05;6.35;;;;;;;1.93;100.00;92460.53;2045540;28;20171;-82
2023/04/21 01:39:13;;;;;;;7.50;6.80;;;;;;;1.80;100.00;92457.53;2055249;28;20062;-83
2023/04/21 01:40:15;;;;;;;7.47;6.78;;;;;;;1.81;100.00;92463.56;2057068;28;20034;-82
2023/04/21 01:41:18;;;;;;;6.97;6.32;;;;;;;1.86;100.00;92469.19;2053300;28;20023;-84
2023/04/21 01:42:21;;;;;;;7.28;6.57;;;;;;;1.72;100.00;92461.28;2052589;28;20507;-84
2023/04/21 01:43:30;;;;;;;6.97;6.28;;;;;;;1.64;100.00;92457.88;2054558;28;20030;-85
2023/04/21 01:44:41;;;;;;;7.95;6.35;;;;;;;1.69;100.00;92462.78;2051010;28;20033;-84
2023/04/21 01:45:47;;;;;;;7.10;6.50;;;;;;;1.69;100.00;92468.06;2062795;28;20111;-83
2023/04/21 01:46:55;;;;;;;7.13;6.50;;;;;;;1.65;100.00;92466.53;2049484;28;20035;-86
2023/04/21 01:48:02;;;;;;;8.23;7.10;;;;;;;1.66;100.00;92468.78;2054445;28;20031;-83
2023/04/21 01:49:04;;;;;;;8.20;6.78;;;;;;;1.70;100.00;92469.56;2055465;28;20457;-83
2023/04/21 01:50:06;;;;;;;7.82;7.03;;;;;;;1.71;100.00;92465.81;2050589;28;20444;-86
2023/04/21 01:51:08;;;;;;;7.97;7.18;;;;;;;1.71;100.00;92465.81;2043538;28;20114;-82
2023/04/21 01:52:09;;;;;;;7.97;7.18;;;;;;;1.68;100.00;92471.06;2040202;28;20031;-83
2023/04/21 01:53:10;;;;;;;10.23;7.40;;;;;;;1.74;100.00;92469.56;2046623;28;20058;-84
2023/04/21 01:54:12;;;;;;;7.95;7.15;;;;;;;1.67;100.00;92467.69;2044381;28;20051;-86
2023/04/21 01:55:13;;;;;;;7.20;6.50;;;;;;;1.70;100.00;92471.44;2044385;28;20120;-84
2023/04/21 01:56:14;;;;;;;7.90;7.10;;;;;;;1.67;100.00;92465.06;2042688;28;20019;-85
2023/04/21 01:57:16;;;;;;;8.65;7.68;;;;;;;1.75;100.00;92463.16;2042696;29;20464;-84
2023/04/21 01:58:17;;;;;;;8.50;7.70;;;;;;;1.72;100.00;92472.56;2045737;28;20074;-85
2023/04/21 01:59:18;;;;;;;7.80;7.07;;;;;;;1.66;100.00;92468.78;2053525;28;20023;-84
2023/04/21 02:00:19;;;;;;;9.05;7.68;;;;;;;1.69;100.00;92468.06;2051067;28;20504;-84
2023/04/21 02:01:21;;;;;;;8.60;7.55;;;;;;;1.64;100.00;92462.41;2046890;28;20083;-82
2023/04/21 02:02:22;;;;;;;7.72;7.03;;;;;;;1.64;100.00;92472.94;2047660;28;20035;-82
2023/04/21 02:03:23;;;;;;;7.85;7.15;;;;;;;1.66;100.00;92465.41;2042561;28;20027;-84
2023/04/21 02:04:24;;;;;;;8.30;7.50;;;;;;;1.67;100.00;92467.69;2050904;28;20043;-85
2023/04/21 02:05:25;;;;;;;8.20;6.97;;;;;;;1.70;100.00;92472.19;2051516;28;20050;-84
2023/04/21 02:06:26;;;;;;;7.65;6.97;;;;;;;1.81;100.00;92469.56;2043056;28;20024;-84
2023/04/21 02:07:27;;;;;;;8.60;7.20;;;;;;;1.65;100.00;92469.19;2042983;29;20718;-83
2023/04/21 02:08:28;;;;;;;8.50;6.40;;;;;;;1.68;100.00;92473.69;2054199;28;20065;-84
2023/04/21 02:09:31;;;;;;;7.95;6.60;;;;;;;1.66;100.00;92475.94;2039099;28;20074;-84
2023/04/21 02:10:32;;;;;;;7.82;7.13;;;;;;;1.61;100.00;92477.06;2043314;28;20023;-84
2023/04/21 02:11:33;;;;;;;7.15;6.45;;;;;;;1.56;100.00;92472.19;2043158;28;20031;-83
2023/04/21 02:12:34;;;;;;;8.23;6.88;;;;;;;1.60;100.00;92472.94;2047317;28;20023;-83
2023/04/21 02:13:35;;;;;;;7.55;6.75;;;;;;;1.54;100.00;92474.44;2051034;28;20027;-83
2023/04/21 02:14:37;;;;;;;7.50;6.80;;;;;;;1.58;100.00;92471.78;2050043;28;20450;-83
2023/04/21 02:15:39;;;;;;;8.05;7.25;;;;;;;1.51;100.00;92481.19;2055123;28;20026;-84
2023/04/21 02:16:41;;;;;;;7.57;6.72;;;;;;;1.46;100.00;92476.31;2042765;28;20118;-82
2023/04/21 02:17:43;;;;;;;7.57;6.82;;;;;;;1.56;100.00;92479.31;2047350;28;20472;-86
2023/04/21 02:52:26;;;;;;;23.83;6.63;;;;;;;1.37;100.00;92475.91;2584873;23;20003;-76
2023/04/21 03:15:07;;;;;;;13.70;6.15;;;;;;;1.39;100.00;92468.38;2450738;24;20017;-73
2023/04/21 03:21:00;;;;;;;33.05;6.43;;;;;;;1.41;100.00;92465.41;2574738;22;20103;-86
2023/04/21 03:22:01;;;;;;;18.27;6.43;;;;;;;1.39;100.00;92468.38;2572117;23;20075;-87
2023/04/21 03:23:02;;;;;;;7.93;6.85;;;;;;;1.39;100.00;92475.53;2559676;23;20063;-84
2023/04/21 03:24:05;;;;;;;29.17;6.80;;;;;;;1.26;100.00;92477.75;2560202;23;20011;-84
2023/04/21 03:25:06;;;;;;;40.45;7.03;;;;;;;1.31;100.00;92466.09;2560542;23;20001;-85
2023/04/21 03:26:07;;;;;;;7.45;6.53;;;;;;;1.38;100.00;92472.16;2560752;23;20005;-85
2023/04/21 03:27:08;;;;;;;36.05;7.68;;;;;;;1.31;100.00;92464.22;2573051;23;20365;-84
2023/04/21 03:28:09;;;;;;;75.55;7.28;;;;;;;1.31;100.00;92464.22;2560460;23;20008;-84
2023/04/21 03:29:12;;;;;;;9.70;6.55;;;;;;;1.29;100.00;92463.84;2546685;23;20005;-84
2023/04/21 03:30:25;;;;;;;21.35;6.68;;;;;;;1.39;100.00;92463.13;2573944;23;19996;-85
2023/04/21 03:31:26;;;;;;;13.85;6.70;;;;;;;1.38;100.00;92468.75;2560985;23;20359;-84
2023/04/21 03:32:27;;;;;;;11.90;6.57;;;;;;;1.39;100.00;92454.47;2544944;23;20096;-83
2023/04/21 03:33:28;;;;;;;11.73;6.53;;;;;;;1.31;100.00;92453.69;2557196;23;20056;-84
2023/04/21 03:34:29;;;;;;;55.95;7.03;;;;;;;1.32;100.00;92457.06;2557178;23;20340;-84
2023/04/21 03:35:30;;;;;;;53.42;9.25;;;;;;;1.28;100.00;92453.72;2543868;23;20412;-83
2023/04/21 03:36:32;;;;;;;47.35;6.90;;;;;;;1.35;100.00;92467.63;2544655;23;20033;-85
2023/04/21 03:37:33;;;;;;;43.47;7.60;;;;;;;1.31;100.00;92461.59;2545005;23;20080;-84
2023/04/21 03:38:35;;;;;;;9.48;7.50;;;;;;;1.30;100.00;92454.06;2545170;23;20059;-84
2023/04/21 03:39:37;;;;;;;41.78;6.80;;;;;;;1.36;100.00;92453.34;2545946;23;20002;-84
2023/04/21 03:40:40;;;;;;;25.77;6.90;;;;;;;1.28;100.00;92466.88;2557545;23;20321;-83
2023/04/21 03:41:41;;;;;;;30.95;6.50;;;;;;;1.23;100.00;92460.84;2545274;23;20835;-84
2023/04/21 03:42:42;;;;;;;61.03;7.03;;;;;;;1.22;100.00;92459.31;2544189;23;20023;-84
2023/04/21 03:43:47;;;;;;;17.85;6.20;;;;;;;1.27;100.00;92455.56;2557233;23;20009;-84
2023/04/21 03:44:48;;;;;;;22.50;6.15;;;;;;;1.31;100.00;92456.31;2576205;23;20052;-83
2023/04/21 03:45:49;;;;;;;28.45;6.40;;;;;;;1.37;100.00;92456.72;2566113;23;20005;-85
2023/04/21 03:46:53;;;;;;;38.13;6.30;;;;;;;1.28;100.00;92458.97;2570447;23;20008;-83
2023/04/21 03:47:55;;;;;;;33.53;6.65;;;;;;;1.31;100.00;92458.22;2569164;23;20008;-84
2023/04/21 03:48:56;;;;;;;23.50;6.25;;;;;;;1.35;100.00;92464.97;2545437;23;20025;-84
2023/04/21 03:49:59;;;;;;;33.03;7.05;;;;;;;1.35;100.00;92456.34;2557250;23;20412;-83
2023/04/21 03:51:02;;;;;;;27.27;6.05;;;;;;;1.46;100.00;92455.25;2569097;23;20075;-85
2023/04/21 03:52:03;;;;;;;20.02;5.63;;;;;;;1.45;100.00;92455.63;2569395;23;20004;-84
2023/04/21 03:53:04;;;;;;;13.45;5.68;;;;;;;1.34;100.00;92454.84;2557099;23;20341;-84
2023/04/21 03:54:07;;;;;;;53.05;8.65;;;;;;;1.26;100.00;92456.69;2569451;23;20530;-84
2023/04/21 03:55:15;;;;;;;57.03;7.50;;;;;;;1.28;100.00;92461.59;2569866;23;20008;-83
2023/04/21 03:56:16;;;;;;;39.60;5.63;;;;;;;1.29;100.00;92453.31;2557971;23;20632;-83
2023/04/21 03:57:18;;;;;;;46.10;5.80;;;;;;;1.26;100.00;92454.06;2557779;23;20009;-85
2023/04/21 03:58:19;;;;;;;75.07;6.93;;;;;;;1.18;100.00;92458.53;2558329;23;20132;-86
2023/04/21 03:59:21;;;;;;;64.93;6.45;;;;;;;1.13;100.00;92456.28;2557342;23;20009;-83
2023/04/21 04:00:23;;;;;;;45.35;6.93;;;;;;;1.25;100.00;92453.31;2557711;23;20015;-85
2023/04/21 04:01:24;;;;;;;29.63;5.75;;;;;;;1.22;100.00;92454.06;2545081;23;20009;-84
2023/04/21 04:02:25;;;;;;;40.33;5.95;;;;;;;1.28;100.00;92461.59;2557323;23;20057;-84
2023/04/21 04:03:27;;;;;;;28.30;6.00;;;;;;;1.37;100.00;92459.38;2544568;23;20642;-83
2023/04/21 04:04:29;;;;;;;44.17;5.10;;;;;;;1.49;100.00;92451.88;2545575;23;20010;-85
2023/04/21 04:05:30;;;;;;;38.90;5.90;;;;;;;1.34;100.00;92463.47;2544932;23;20016;-83
2023/04/21 04:06:32;;;;;;;29.27;5.50;;;;;;;1.33;100.00;92466.50;2557462;23;20005;-84
2023/04/21 04:07:34;;;;;;;25.35;5.20;;;;;;;1.22;100.00;92464.56;2556537;23;20029;-84
2023/04/21 04:08:36;;;;;;;20.10;5.22;;;;;;;1.22;100.00;92454.06;2557315;23;20001;-85
2023/04/21 04:09:39;;;;;;;27.42;4.85;;;;;;;1.20;100.00;92464.22;2545101;23;20024;-84
2023/04/21 04:10:41;;;;;;;25.90;5.10;;;;;;;1.11;100.00;92460.44;2533841;23;20020;-83
2023/04/21 04:11:44;;;;;;;30.67;7.18;;;;;;;1.19;100.00;92460.06;2545246;23;20025;-83
2023/04/21 04:12:50;;;;;;;34.00;5.47;;;;;;;1.14;100.00;92465.72;2545831;23;20028;-85
2023/04/21 04:13:51;;;;;;;43.03;6.15;;;;;;;1.06;100.00;92464.19;2557785;23;20005;-85
2023/04/21 04:14:52;;;;;;;73.15;6.03;;;;;;;0.96;100.00;92463.00;2566885;23;20374;-84
2023/04/21 04:15:53;;;;;;;33.97;5.65;;;;;;;0.94;100.00;92461.88;2559718;23;20128;-86
2023/04/21 04:16:54;;;;;;;30.17;6.18;;;;;;;0.91;100.00;92466.00;2569753;23;20008;-84
2023/04/21 04:17:55;;;;;;;22.25;5.05;;;;;;;1.03;100.00;92462.28;2570429;23;20062;-84
2023/04/21 04:19:00;;;;;;;23.77;5.18;;;;;;;1.03;100.00;92458.91;2558013;23;20004;-84
2023/04/21 04:20:03;;;;;;;14.88;5.90;;;;;;;0.94;100.00;92459.25;2557739;23;20001;-85
2023/04/21 04:21:07;;;;;;;18.17;6.15;;;;;;;0.96;100.00;92459.63;2557266;23;20024;-84
2023/04/21 04:22:08;;;;;;;43.28;9.48;;;;;;;1.00;100.00;92455.13;2557568;23;20151;-84
2023/04/21 04:23:10;;;;;;;46.67;7.63;;;;;;;1.02;100.00;92457.41;2545211;23;20122;-84
2023/04/21 04:24:12;;;;;;;25.20;7.03;;;;;;;0.98;100.00;92463.38;2558061;23;20039;-83
2023/04/21 04:25:15;;;;;;;18.13;5.60;;;;;;;1.02;100.00;92468.66;2556545;23;20044;-83
2023/04/21 04:26:17;;;;;;;29.02;4.68;;;;;;;1.05;100.00;92454.75;2557290;23;20000;-86
2023/04/21 04:27:19;;;;;;;32.38;5.90;;;;;;;1.15;100.00;92459.31;2556683;23;20418;-85
2023/04/21 04:28:21;;;;;;;15.98;4.82;;;;;;;1.24;100.00;92454.44;2545111;23;20066;-82
2023/04/21 04:29:22;;;;;;;30.35;5.47;;;;;;;1.17;100.00;92461.56;2544503;23;20009;-84
2023/04/21 04:30:26;;;;;;;25.55;4.45;;;;;;;1.03;100.00;92462.28;2544749;23;20500;-84
2023/04/21 04:31:29;;;;;;;23.58;5.55;;;;;;;0.99;100.00;92458.88;2545591;23;20002;-84
2023/04/21 04:32:32;;;;;;;29.05;5.30;;;;;;;0.99;100.00;92453.63;2545179;23;20009;-85
2023/04/21 04:33:33;;;;;;;34.70;5.30;;;;;;;0.98;100.00;92452.88;2545209;23;20113;-83
2023/04/21 04:34:38;;;;;;;17.88;4.90;;;;;;;1.01;100.00;92454.00;2533712;23;20025;-84
2023/04/21 04:35:39;;;;;;;24.70;5.00;;;;;;;1.09;100.00;92460.78;2546842;23;20009;-84
2023/04/21 04:36:41;;;;;;;17.27;4.63;;;;;;;0.99;100.00;92457.00;2553754;23;20056;-86
2023/04/21 04:37:42;;;;;;;19.70;5.35;;;;;;;0.90;100.00;92461.09;2546673;23;20001;-85
2023/04/21 04:38:44;;;;;;;19.17;4.43;;;;;;;0.85;100.00;92456.22;2558338;23;20000;-85
2023/04/21 04:39:45;;;;;;;15.00;4.30;;;;;;;0.93;100.00;92458.50;2557351;23;20035;-85
2023/04/21 04:40:57;;;;;;;8.48;4.22;;;;;;;0.98;100.00;92455.50;2545729;23;20103;-85
2023/04/21 04:42:00;;;;;;;18.63;4.13;;;;;;;0.92;100.00;92461.47;2550360;23;20036;-84
2023/04/21 04:43:02;;;;;;;13.98;4.32;;;;;;;0.85;100.00;92451.69;2545009;23;20424;-86
2023/04/21 04:44:04;;;;;;;13.50;4.43;;;;;;;0.90;100.00;92459.22;2533009;23;20357;-85
2023/04/21 04:45:08;;;;;;;8.77;4.20;;;;;;;0.97;100.00;92456.63;2543854;23;20506;-85
2023/04/21 04:46:11;;;;;;;8.93;4.10;;;;;;;0.93;100.00;92458.50;2556424;23;20360;-83
2023/04/21 04:47:13;;;;;;;19.13;4.18;;;;;;;0.86;100.00;92455.06;2541903;23;20010;-85
2023/04/21 04:48:14;;;;;;;15.27;3.72;;;;;;;0.92;100.00;92462.25;2531244;23;20404;-84
2023/04/21 04:49:15;;;;;;;7.40;3.92;;;;;;;0.94;100.00;92456.59;2543542;23;20005;-84
2023/04/21 04:50:16;;;;;;;10.43;4.55;;;;;;;0.98;100.00;92460.00;2555897;23;20012;-84
2023/04/21 04:51:17;;;;;;;5.53;4.18;;;;;;;0.97;100.00;92461.13;2545686;23;20517;-85
2023/04/21 04:52:18;;;;;;;6.93;3.80;;;;;;;0.97;100.00;92469.78;2557440;23;20640;-85
2023/04/21 04:53:19;;;;;;;4.90;3.92;;;;;;;0.97;100.00;92463.78;2557571;23;20005;-85
2023/04/21 04:54:21;;;;;;;6.43;4.20;;;;;;;0.94;100.00;92461.88;2526601;23;20021;-86
2023/04/21 04:55:24;;;;;;;7.95;5.00;;;;;;;0.93;100.00;92463.75;2541650;23;20099;-84
2023/04/21 04:56:25;;;;;;;12.02;5.13;;;;;;;0.90;100.00;92461.84;2538743;23;20009;-84
2023/04/21 04:57:26;;;;;;;4.68;4.22;;;;;;;1.03;100.00;92461.53;2548513;23;20005;-85
2023/04/21 04:58:27;;;;;;;7.13;4.20;;;;;;;0.92;100.00;92458.84;2546368;23;20016;-85
2023/04/21 04:59:30;;;;;;;7.68;3.55;;;;;;;0.92;100.00;92464.88;2546199;23;20084;-85
2023/04/21 05:00:31;;;;;;;5.47;4.47;;;;;;;0.87;100.00;92462.59;2541853;23;20001;-83
2023/04/21 05:01:33;;;;;;;7.25;3.97;;;;;;;0.84;100.00;92465.22;2553909;23;20005;-84
2023/04/21 05:02:34;;;;;;;6.47;4.38;;;;;;;0.90;100.00;92467.13;2543153;23;20152;-85
2023/04/21 05:03:36;;;;;;;5.85;4.43;;;;;;;0.87;100.00;92465.22;2570260;22;20382;-85
2023/04/21 05:04:42;;;;;;;6.53;4.40;;;;;;;0.89;100.00;92464.88;2567098;23;20012;-85
2023/04/21 05:05:46;;;;;;;5.22;3.95;;;;;;;0.91;100.00;92459.97;2555252;23;20429;-85
2023/04/21 05:06:47;;;;;;;6.97;4.45;;;;;;;0.87;100.00;92459.22;2554931;23;20562;-85
2023/04/21 05:07:48;;;;;;;5.15;4.65;;;;;;;0.83;100.00;92459.19;2543949;23;20005;-85
2023/04/21 05:08:49;;;;;;;6.68;4.20;;;;;;;1.04;100.00;92465.66;2543698;23;20036;-84
2023/04/21 05:09:50;;;;;;;9.18;4.22;;;;;;;0.85;100.00;92459.59;2555849;23;20099;-84
2023/04/21 05:10:52;;;;;;;8.07;3.60;;;;;;;0.91;100.00;92460.72;2553960;23;20481;-86
2023/04/21 05:11:52;;;;;;;8.00;4.25;;;;;;;0.89;100.00;92457.72;2555651;23;20005;-85
2023/04/21 05:12:56;;;;;;;8.85;4.55;;;;;;;0.93;100.00;92455.09;2566565;23;20262;-85
2023/04/21 05:13:58;;;;;;;7.10;4.43;;;;;;;0.93;100.00;92461.13;2543878;23;20069;-84
2023/04/21 05:14:59;;;;;;;15.73;4.68;;;;;;;0.96;100.00;92465.63;2542430;23;20035;-84
2023/04/21 05:16:02;;;;;;;8.40;4.53;;;;;;;0.94;100.00;92470.50;2542985;23;20037;-86
2023/04/21 05:17:04;;;;;;;37.72;5.32;;;;;;;0.93;100.00;92469.00;2558808;23;20001;-84
2023/04/21 05:18:17;;;;;;;10.10;5.30;;;;;;;0.95;100.00;92466.75;2557514;23;20005;-84
2023/04/21 05:19:18;;;;;;;9.55;4.97;;;;;;;0.95;100.00;92466.00;2544495;23;20358;-84
2023/04/21 05:20:22;;;;;;;24.20;6.53;;;;;;;1.07;100.00;92468.31;2556721;23;20475;-84
2023/04/21 05:21:26;;;;;;;32.13;4.20;;;;;;;1.03;100.00;92474.69;2558751;23;20319;-83
2023/04/21 05:22:27;;;;;;;13.68;4.32;;;;;;;0.93;100.00;92466.38;2548142;23;20017;-84
2023/04/21 05:23:28;;;;;;;9.73;3.92;;;;;;;0.92;100.00;92478.03;2546090;23;20444;-85
2023/04/21 05:24:29;;;;;;;70.13;5.13;;;;;;;0.93;100.00;92476.16;2543671;23;20139;-85
2023/04/21 05:25:30;;;;;;;136.85;7.35;;;;;;;0.85;100.00;92467.47;2541249;23;20009;-86
2023/04/21 05:26:31;;;;;;;31.77;4.60;;;;;;;0.84;100.00;92468.59;2541995;23;20005;-86
2023/04/21 05:27:35;;;;;;;57.75;5.70;;;;;;;0.83;100.00;92479.47;2565525;23;20308;-84
2023/04/21 05:28:37;;;;;;;11.27;3.90;;;;;;;0.90;100.00;92466.38;2554177;23;20032;-84
2023/04/21 05:29:40;;;;;;;23.98;4.28;;;;;;;0.88;100.00;92477.28;2542218;23;20006;-85
2023/04/21 05:30:42;;;;;;;8.60;4.07;;;;;;;0.91;100.00;92471.25;2557736;23;20488;-84
2023/04/21 05:31:44;;;;;;;8.90;4.10;;;;;;;0.94;100.00;92473.16;2557706;23;20331;-84
2023/04/21 05:32:47;;;;;;;20.20;4.28;;;;;;;0.99;100.00;92467.53;2558051;23;20447;-82
2023/04/21 05:33:55;;;;;;;10.10;4.30;;;;;;;1.02;100.00;92471.31;2532333;23;20059;-85
2023/04/21 05:34:58;;;;;;;7.10;4.43;;;;;;;1.02;100.00;92467.91;2546234;23;20012;-84
2023/04/21 05:35:59;;;;;;;11.10;4.05;;;;;;;0.94;100.00;92478.41;2556563;23;20394;-83
2023/04/21 05:37:00;;;;;;;5.53;3.90;;;;;;;1.07;100.00;92470.94;2545412;23;20002;-84
2023/04/21 05:38:01;;;;;;;5.18;3.80;;;;;;;1.11;100.00;92468.31;2555820;23;20007;-83
2023/04/21 05:39:03;;;;;;;4.95;4.20;;;;;;;1.05;100.00;92475.81;2564137;23;20438;-85
2023/04/21 05:40:04;;;;;;;4.57;3.67;;;;;;;1.05;100.00;92473.16;2539427;23;20017;-84
2023/04/21 05:41:05;;;;;;;4.88;3.78;;;;;;;1.06;100.00;92471.31;2540977;23;20009;-84
2023/04/21 05:42:10;;;;;;;5.07;3.90;;;;;;;1.12;100.00;92475.84;2541862;23;20450;-84
2023/04/21 05:43:11;;;;;;;6.07;5.47;;;;;;;1.16;100.00;92471.34;2554947;23;20549;-85
2023/04/21 05:44:16;;;;;;;5.30;4.35;;;;;;;1.17;100.00;92474.72;2551387;23;20005;-84
2023/04/21 05:45:18;;;;;;;4.20;3.80;;;;;;;1.15;100.00;92472.47;2544422;23;20320;-84
2023/04/21 05:46:19;;;;;;;4.53;3.60;;;;;;;1.17;100.00;92469.47;2545821;23;20183;-85
2023/04/21 05:47:20;;;;;;;5.70;3.60;;;;;;;1.09;100.00;92468.69;2533755;23;20282;-83
2023/04/21 05:48:23;;;;;;;5.07;4.13;;;;;;;1.13;100.00;92469.44;2532864;23;20006;-83
2023/04/21 05:49:24;;;;;;;4.53;3.92;;;;;;;1.12;100.00;92464.56;2536215;23;20002;-83
2023/04/21 05:50:32;;;;;;;5.13;3.88;;;;;;;1.11;100.00;92471.69;2545635;23;20287;-85
2023/04/21 05:51:33;;;;;;;5.10;3.97;;;;;;;1.15;100.00;92469.09;2548477;23;20347;-85